sensor_id;sensor_type;location;lat;lon;timestamp;temperature;humidity
8715;DHT22;4394;51.208;8.904;2022-08-21T00:00:11;17.60;99.90
8715;DHT22;4394;51.208;8.904;2022-08-21T00:03:02;17.60;99.90
8715;DHT22;4394;51.208;8.904;2022-08-21T00:05:51;17.60;99.90
8715;DHT22;4394;51.208;8.904;2022-08-21T00:08:41;17.80;99.90
8715;DHT22;4394;51.208;8.904;2022-08-21T00:11:29;17.60;99.90
8715;DHT22;4394;51.208;8.904;2022-08-21T00:14:17;17.60;99.90
8715;DHT22;4394;51.208;8.904;2022-08-21T00:17:05;17.60;99.90
8715;DHT22;4394;51.208;8.904;2022-08-21T00:19:54;17.50;99.90
8715;DHT22;4394;51.208;8.904;2022-08-21T00:22:42;17.50;99.90
8715;DHT22;4394;51.208;8.904;2022-08-21T00:25:32;17.40;99.90
8715;DHT22;4394;51.208;8.904;2022-08-21T00:28:20;17.30;99.90
8715;DHT22;4394;51.208;8.904;2022-08-21T00:31:08;17.40;99.90
8715;DHT22;4394;51.208;8.904;2022-08-21T00:33:56;17.30;99.90
8715;DHT22;4394;51.208;8.904;2022-08-21T00:36:46;17.30;99.90
8715;DHT22;4394;51.208;8.904;2022-08-21T00:39:34;17.30;99.90
8715;DHT22;4394;51.208;8.904;2022-08-21T00:42:24;17.30;99.90
8715;DHT22;4394;51.208;8.904;2022-08-21T00:45:13;17.20;99.90
8715;DHT22;4394;51.208;8.904;2022-08-21T00:48:01;17.20;99.90
8715;DHT22;4394;51.208;8.904;2022-08-21T00:50:52;17.20;99.90
8715;DHT22;4394;51.208;8.904;2022-08-21T00:53:43;17.30;99.90
8715;DHT22;4394;51.208;8.904;2022-08-21T00:56:39;17.20;99.90
8715;DHT22;4394;51.208;8.904;2022-08-21T00:59:33;17.30;99.90
8715;DHT22;4394;51.208;8.904;2022-08-21T01:02:22;17.20;99.90
8715;DHT22;4394;51.208;8.904;2022-08-21T01:05:11;17.20;99.90
8715;DHT22;4394;51.208;8.904;2022-08-21T01:07:59;17.20;99.90
8715;DHT22;4394;51.208;8.904;2022-08-21T01:10:47;17.20;99.90
8715;DHT22;4394;51.208;8.904;2022-08-21T01:13:40;17.20;99.90
8715;DHT22;4394;51.208;8.904;2022-08-21T01:16:34;17.10;99.90
8715;DHT22;4394;51.208;8.904;2022-08-21T01:19:23;17.10;99.90
8715;DHT22;4394;51.208;8.904;2022-08-21T01:22:12;17.10;99.90
8715;DHT22;4394;51.208;8.904;2022-08-21T01:25:00;17.00;99.90
8715;DHT22;4394;51.208;8.904;2022-08-21T01:27:49;17.00;99.90
8715;DHT22;4394;51.208;8.904;2022-08-21T01:30:37;16.90;99.90
8715;DHT22;4394;51.208;8.904;2022-08-21T01:33:26;16.90;99.90
8715;DHT22;4394;51.208;8.904;2022-08-21T01:36:14;16.80;99.90
8715;DHT22;4394;51.208;8.904;2022-08-21T01:39:04;16.80;99.90
8715;DHT22;4394;51.208;8.904;2022-08-21T01:41:52;16.90;99.90
8715;DHT22;4394;51.208;8.904;2022-08-21T01:44:41;16.90;99.90
8715;DHT22;4394;51.208;8.904;2022-08-21T01:47:29;16.90;99.90
8715;DHT22;4394;51.208;8.904;2022-08-21T01:50:19;17.00;99.90
8715;DHT22;4394;51.208;8.904;2022-08-21T01:53:08;16.90;99.90
8715;DHT22;4394;51.208;8.904;2022-08-21T01:55:57;16.90;99.90
8715;DHT22;4394;51.208;8.904;2022-08-21T01:58:46;16.90;99.90
8715;DHT22;4394;51.208;8.904;2022-08-21T02:01:34;16.90;99.90
8715;DHT22;4394;51.208;8.904;2022-08-21T02:04:22;16.80;99.90
8715;DHT22;4394;51.208;8.904;2022-08-21T02:09:56;16.80;99.90
8715;DHT22;4394;51.208;8.904;2022-08-21T02:12:46;16.80;99.90
8715;DHT22;4394;51.208;8.904;2022-08-21T02:15:34;16.80;99.90
8715;DHT22;4394;51.208;8.904;2022-08-21T02:18:23;16.80;99.90
8715;DHT22;4394;51.208;8.904;2022-08-21T02:21:11;16.80;99.90
8715;DHT22;4394;51.208;8.904;2022-08-21T02:24:00;16.80;99.90
8715;DHT22;4394;51.208;8.904;2022-08-21T02:26:48;16.80;99.90
8715;DHT22;4394;51.208;8.904;2022-08-21T02:29:38;16.80;99.90
8715;DHT22;4394;51.208;8.904;2022-08-21T02:32:27;16.70;99.90
8715;DHT22;4394;51.208;8.904;2022-08-21T02:35:16;16.70;99.90
8715;DHT22;4394;51.208;8.904;2022-08-21T02:40:59;16.70;99.90
8715;DHT22;4394;51.208;8.904;2022-08-21T02:43:48;16.60;99.90
8715;DHT22;4394;51.208;8.904;2022-08-21T02:46:37;16.60;99.90
8715;DHT22;4394;51.208;8.904;2022-08-21T02:49:25;16.50;99.90
8715;DHT22;4394;51.208;8.904;2022-08-21T02:52:13;16.50;99.90
8715;DHT22;4394;51.208;8.904;2022-08-21T02:55:01;16.40;99.90
8715;DHT22;4394;51.208;8.904;2022-08-21T02:57:49;16.40;99.90
8715;DHT22;4394;51.208;8.904;2022-08-21T03:00:37;16.40;99.90
8715;DHT22;4394;51.208;8.904;2022-08-21T03:03:27;16.40;99.90
8715;DHT22;4394;51.208;8.904;2022-08-21T03:06:17;16.40;99.90
8715;DHT22;4394;51.208;8.904;2022-08-21T03:09:05;16.40;99.90
8715;DHT22;4394;51.208;8.904;2022-08-21T03:11:54;16.30;99.90
8715;DHT22;4394;51.208;8.904;2022-08-21T03:14:42;16.40;99.90
8715;DHT22;4394;51.208;8.904;2022-08-21T03:17:30;16.30;99.90
8715;DHT22;4394;51.208;8.904;2022-08-21T03:20:21;16.30;99.90
8715;DHT22;4394;51.208;8.904;2022-08-21T03:23:10;16.30;99.90
8715;DHT22;4394;51.208;8.904;2022-08-21T03:26:02;16.20;99.90
8715;DHT22;4394;51.208;8.904;2022-08-21T03:28:50;16.10;99.90
8715;DHT22;4394;51.208;8.904;2022-08-21T03:31:38;16.10;99.90
8715;DHT22;4394;51.208;8.904;2022-08-21T03:34:26;16.00;99.90
8715;DHT22;4394;51.208;8.904;2022-08-21T03:37:15;15.90;99.90
8715;DHT22;4394;51.208;8.904;2022-08-21T03:40:05;16.00;99.90
8715;DHT22;4394;51.208;8.904;2022-08-21T03:42:53;16.00;99.90
8715;DHT22;4394;51.208;8.904;2022-08-21T03:45:41;16.00;99.90
8715;DHT22;4394;51.208;8.904;2022-08-21T03:48:30;15.90;99.90
8715;DHT22;4394;51.208;8.904;2022-08-21T03:51:18;15.90;99.90
8715;DHT22;4394;51.208;8.904;2022-08-21T03:54:08;16.00;99.90
8715;DHT22;4394;51.208;8.904;2022-08-21T03:56:56;15.90;99.90
8715;DHT22;4394;51.208;8.904;2022-08-21T03:59:44;15.90;99.90
8715;DHT22;4394;51.208;8.904;2022-08-21T04:02:33;15.90;99.90
8715;DHT22;4394;51.208;8.904;2022-08-21T04:05:21;16.00;99.90
8715;DHT22;4394;51.208;8.904;2022-08-21T04:08:15;16.00;99.90
8715;DHT22;4394;51.208;8.904;2022-08-21T04:11:05;15.90;99.90
8715;DHT22;4394;51.208;8.904;2022-08-21T04:13:54;15.90;99.90
8715;DHT22;4394;51.208;8.904;2022-08-21T04:16:42;15.80;99.90
8715;DHT22;4394;51.208;8.904;2022-08-21T04:19:30;15.70;99.90
8715;DHT22;4394;51.208;8.904;2022-08-21T04:22:18;15.60;99.90
8715;DHT22;4394;51.208;8.904;2022-08-21T04:25:07;15.60;99.90
8715;DHT22;4394;51.208;8.904;2022-08-21T04:27:58;15.50;99.90
8715;DHT22;4394;51.208;8.904;2022-08-21T04:30:48;15.50;99.90
8715;DHT22;4394;51.208;8.904;2022-08-21T04:33:36;15.40;99.90
8715;DHT22;4394;51.208;8.904;2022-08-21T04:36:24;15.40;99.90
8715;DHT22;4394;51.208;8.904;2022-08-21T04:39:15;15.50;99.90
8715;DHT22;4394;51.208;8.904;2022-08-21T04:42:03;15.50;99.90
8715;DHT22;4394;51.208;8.904;2022-08-21T04:44:55;15.50;99.90
8715;DHT22;4394;51.208;8.904;2022-08-21T04:47:43;15.50;99.90
8715;DHT22;4394;51.208;8.904;2022-08-21T04:50:42;15.50;99.90
8715;DHT22;4394;51.208;8.904;2022-08-21T04:53:34;15.50;99.90
8715;DHT22;4394;51.208;8.904;2022-08-21T04:56:26;15.50;99.90
8715;DHT22;4394;51.208;8.904;2022-08-21T04:59:19;15.50;99.90
8715;DHT22;4394;51.208;8.904;2022-08-21T05:02:10;15.50;99.90
8715;DHT22;4394;51.208;8.904;2022-08-21T05:04:59;15.50;99.90
8715;DHT22;4394;51.208;8.904;2022-08-21T05:07:48;15.40;99.90
8715;DHT22;4394;51.208;8.904;2022-08-21T05:10:36;15.40;99.90
8715;DHT22;4394;51.208;8.904;2022-08-21T05:13:25;15.40;99.90
8715;DHT22;4394;51.208;8.904;2022-08-21T05:16:13;15.40;99.90
8715;DHT22;4394;51.208;8.904;2022-08-21T05:19:23;15.40;99.90
8715;DHT22;4394;51.208;8.904;2022-08-21T05:22:19;15.50;99.90
8715;DHT22;4394;51.208;8.904;2022-08-21T05:25:08;15.60;99.90
8715;DHT22;4394;51.208;8.904;2022-08-21T05:27:56;15.60;99.90
8715;DHT22;4394;51.208;8.904;2022-08-21T05:30:46;15.60;99.90
8715;DHT22;4394;51.208;8.904;2022-08-21T05:33:34;15.70;99.90
8715;DHT22;4394;51.208;8.904;2022-08-21T05:36:27;15.60;99.90
8715;DHT22;4394;51.208;8.904;2022-08-21T05:39:15;15.70;99.90
8715;DHT22;4394;51.208;8.904;2022-08-21T05:42:03;15.70;99.90
8715;DHT22;4394;51.208;8.904;2022-08-21T05:44:51;15.80;99.90
8715;DHT22;4394;51.208;8.904;2022-08-21T05:47:39;15.90;99.90
8715;DHT22;4394;51.208;8.904;2022-08-21T05:50:27;16.00;99.90
8715;DHT22;4394;51.208;8.904;2022-08-21T05:53:22;16.10;99.90
8715;DHT22;4394;51.208;8.904;2022-08-21T05:56:12;16.10;99.90
8715;DHT22;4394;51.208;8.904;2022-08-21T05:59:00;16.20;99.90
8715;DHT22;4394;51.208;8.904;2022-08-21T06:01:54;16.30;99.90
8715;DHT22;4394;51.208;8.904;2022-08-21T06:04:42;16.30;99.90
8715;DHT22;4394;51.208;8.904;2022-08-21T06:07:30;16.30;99.90
8715;DHT22;4394;51.208;8.904;2022-08-21T06:10:19;16.30;99.90
8715;DHT22;4394;51.208;8.904;2022-08-21T06:13:07;16.40;99.90
8715;DHT22;4394;51.208;8.904;2022-08-21T06:16:04;16.40;99.90
8715;DHT22;4394;51.208;8.904;2022-08-21T06:18:53;16.50;99.90
8715;DHT22;4394;51.208;8.904;2022-08-21T06:21:47;16.60;99.90
8715;DHT22;4394;51.208;8.904;2022-08-21T06:24:35;16.60;99.90
8715;DHT22;4394;51.208;8.904;2022-08-21T06:27:24;16.70;99.90
8715;DHT22;4394;51.208;8.904;2022-08-21T06:30:13;16.80;99.90
8715;DHT22;4394;51.208;8.904;2022-08-21T06:33:01;16.90;99.90
8715;DHT22;4394;51.208;8.904;2022-08-21T06:35:49;17.00;99.90
8715;DHT22;4394;51.208;8.904;2022-08-21T06:38:38;17.00;99.90
8715;DHT22;4394;51.208;8.904;2022-08-21T06:41:26;17.10;99.90
8715;DHT22;4394;51.208;8.904;2022-08-21T06:44:17;17.10;99.90
8715;DHT22;4394;51.208;8.904;2022-08-21T06:47:05;17.20;99.90
8715;DHT22;4394;51.208;8.904;2022-08-21T06:49:53;17.20;99.90
8715;DHT22;4394;51.208;8.904;2022-08-21T06:52:41;17.30;99.90
8715;DHT22;4394;51.208;8.904;2022-08-21T06:55:29;17.40;99.90
8715;DHT22;4394;51.208;8.904;2022-08-21T06:58:17;17.40;99.90
8715;DHT22;4394;51.208;8.904;2022-08-21T07:01:07;17.50;99.90
8715;DHT22;4394;51.208;8.904;2022-08-21T07:03:55;17.60;99.90
8715;DHT22;4394;51.208;8.904;2022-08-21T07:06:43;17.50;99.90
8715;DHT22;4394;51.208;8.904;2022-08-21T07:09:31;17.60;99.90
8715;DHT22;4394;51.208;8.904;2022-08-21T07:12:19;17.60;99.90
8715;DHT22;4394;51.208;8.904;2022-08-21T07:15:08;17.70;99.90
8715;DHT22;4394;51.208;8.904;2022-08-21T07:17:58;17.80;99.90
8715;DHT22;4394;51.208;8.904;2022-08-21T07:20:47;17.90;99.90
8715;DHT22;4394;51.208;8.904;2022-08-21T07:23:40;18.00;99.90
8715;DHT22;4394;51.208;8.904;2022-08-21T07:26:29;18.10;99.90
8715;DHT22;4394;51.208;8.904;2022-08-21T07:29:16;18.30;99.90
8715;DHT22;4394;51.208;8.904;2022-08-21T07:32:05;18.30;99.90
8715;DHT22;4394;51.208;8.904;2022-08-21T07:34:55;18.40;99.90
8715;DHT22;4394;51.208;8.904;2022-08-21T07:37:42;18.50;99.90
8715;DHT22;4394;51.208;8.904;2022-08-21T07:40:30;18.60;99.90
8715;DHT22;4394;51.208;8.904;2022-08-21T07:43:18;18.70;99.90
8715;DHT22;4394;51.208;8.904;2022-08-21T07:46:06;18.80;99.90
8715;DHT22;4394;51.208;8.904;2022-08-21T07:48:54;18.80;99.90
8715;DHT22;4394;51.208;8.904;2022-08-21T07:51:43;19.00;99.90
8715;DHT22;4394;51.208;8.904;2022-08-21T07:54:31;19.00;99.90
8715;DHT22;4394;51.208;8.904;2022-08-21T07:57:20;19.10;99.90
8715;DHT22;4394;51.208;8.904;2022-08-21T08:00:11;19.20;99.90
8715;DHT22;4394;51.208;8.904;2022-08-21T08:02:59;19.20;99.90
8715;DHT22;4394;51.208;8.904;2022-08-21T08:05:47;19.30;99.90
8715;DHT22;4394;51.208;8.904;2022-08-21T08:08:37;19.40;99.90
8715;DHT22;4394;51.208;8.904;2022-08-21T08:11:25;19.50;99.90
8715;DHT22;4394;51.208;8.904;2022-08-21T08:14:12;19.60;99.90
8715;DHT22;4394;51.208;8.904;2022-08-21T08:17:01;19.80;99.90
8715;DHT22;4394;51.208;8.904;2022-08-21T08:19:50;19.90;99.90
8715;DHT22;4394;51.208;8.904;2022-08-21T08:22:38;20.00;99.90
8715;DHT22;4394;51.208;8.904;2022-08-21T08:25:29;20.10;99.90
8715;DHT22;4394;51.208;8.904;2022-08-21T08:28:22;20.20;99.90
8715;DHT22;4394;51.208;8.904;2022-08-21T08:31:10;20.40;99.90
8715;DHT22;4394;51.208;8.904;2022-08-21T08:33:58;20.60;99.90
8715;DHT22;4394;51.208;8.904;2022-08-21T08:36:46;20.70;99.90
8715;DHT22;4394;51.208;8.904;2022-08-21T08:39:37;20.80;99.90
8715;DHT22;4394;51.208;8.904;2022-08-21T08:42:29;20.80;99.90
8715;DHT22;4394;51.208;8.904;2022-08-21T08:45:21;20.70;99.90
8715;DHT22;4394;51.208;8.904;2022-08-21T08:48:13;20.70;99.90
8715;DHT22;4394;51.208;8.904;2022-08-21T08:51:03;20.60;99.90
8715;DHT22;4394;51.208;8.904;2022-08-21T08:53:57;20.60;99.90
8715;DHT22;4394;51.208;8.904;2022-08-21T08:56:47;20.60;99.90
8715;DHT22;4394;51.208;8.904;2022-08-21T08:59:41;20.60;99.90
8715;DHT22;4394;51.208;8.904;2022-08-21T09:02:30;20.80;99.90
8715;DHT22;4394;51.208;8.904;2022-08-21T09:05:24;20.80;99.90
8715;DHT22;4394;51.208;8.904;2022-08-21T09:08:33;21.00;99.90
8715;DHT22;4394;51.208;8.904;2022-08-21T09:11:27;21.20;99.90
8715;DHT22;4394;51.208;8.904;2022-08-21T09:14:22;21.20;99.90
8715;DHT22;4394;51.208;8.904;2022-08-21T09:17:20;21.20;99.90
8715;DHT22;4394;51.208;8.904;2022-08-21T09:20:26;21.30;99.90
8715;DHT22;4394;51.208;8.904;2022-08-21T09:23:25;21.50;99.90
8715;DHT22;4394;51.208;8.904;2022-08-21T09:26:17;21.70;99.90
8715;DHT22;4394;51.208;8.904;2022-08-21T09:29:06;21.80;99.90
8715;DHT22;4394;51.208;8.904;2022-08-21T09:31:58;21.90;99.90
8715;DHT22;4394;51.208;8.904;2022-08-21T09:34:59;22.00;99.90
8715;DHT22;4394;51.208;8.904;2022-08-21T09:37:53;22.00;99.90
8715;DHT22;4394;51.208;8.904;2022-08-21T09:40:43;22.00;99.90
8715;DHT22;4394;51.208;8.904;2022-08-21T09:43:31;22.30;99.90
8715;DHT22;4394;51.208;8.904;2022-08-21T09:46:21;22.40;99.90
8715;DHT22;4394;51.208;8.904;2022-08-21T09:49:10;22.60;99.90
8715;DHT22;4394;51.208;8.904;2022-08-21T09:52:10;22.70;99.90
8715;DHT22;4394;51.208;8.904;2022-08-21T09:55:01;22.90;99.90
8715;DHT22;4394;51.208;8.904;2022-08-21T09:58:09;22.90;98.90
8715;DHT22;4394;51.208;8.904;2022-08-21T10:00:59;23.00;99.80
8715;DHT22;4394;51.208;8.904;2022-08-21T10:03:48;23.10;98.80
8715;DHT22;4394;51.208;8.904;2022-08-21T10:06:37;23.20;99.10
8715;DHT22;4394;51.208;8.904;2022-08-21T10:09:26;23.00;98.70
8715;DHT22;4394;51.208;8.904;2022-08-21T10:12:20;22.90;98.20
8715;DHT22;4394;51.208;8.904;2022-08-21T10:15:15;23.00;98.30
8715;DHT22;4394;51.208;8.904;2022-08-21T10:18:10;23.10;98.00
8715;DHT22;4394;51.208;8.904;2022-08-21T10:21:04;23.20;97.60
8715;DHT22;4394;51.208;8.904;2022-08-21T10:24:07;23.40;97.80
8715;DHT22;4394;51.208;8.904;2022-08-21T10:27:25;23.50;95.20
8715;DHT22;4394;51.208;8.904;2022-08-21T10:30:35;23.50;95.70
8715;DHT22;4394;51.208;8.904;2022-08-21T10:33:31;23.70;94.60
8715;DHT22;4394;51.208;8.904;2022-08-21T10:36:29;23.80;95.80
8715;DHT22;4394;51.208;8.904;2022-08-21T10:39:27;23.90;94.20
8715;DHT22;4394;51.208;8.904;2022-08-21T10:42:30;23.80;94.30
8715;DHT22;4394;51.208;8.904;2022-08-21T10:45:30;23.90;94.10
8715;DHT22;4394;51.208;8.904;2022-08-21T10:48:25;24.10;93.60
8715;DHT22;4394;51.208;8.904;2022-08-21T10:51:20;24.30;93.70
8715;DHT22;4394;51.208;8.904;2022-08-21T10:54:21;24.50;93.40
8715;DHT22;4394;51.208;8.904;2022-08-21T10:57:17;24.70;91.50
8715;DHT22;4394;51.208;8.904;2022-08-21T11:00:21;24.80;91.20
8715;DHT22;4394;51.208;8.904;2022-08-21T11:03:13;25.00;90.60
8715;DHT22;4394;51.208;8.904;2022-08-21T11:06:06;25.00;88.10
8715;DHT22;4394;51.208;8.904;2022-08-21T11:08:58;25.00;88.90
8715;DHT22;4394;51.208;8.904;2022-08-21T11:11:56;25.20;90.10
8715;DHT22;4394;51.208;8.904;2022-08-21T11:15:03;25.40;85.30
8715;DHT22;4394;51.208;8.904;2022-08-21T11:18:02;25.50;86.90
8715;DHT22;4394;51.208;8.904;2022-08-21T11:21:01;25.80;87.80
8715;DHT22;4394;51.208;8.904;2022-08-21T11:23:59;26.10;85.70
8715;DHT22;4394;51.208;8.904;2022-08-21T11:26:54;26.30;83.20
8715;DHT22;4394;51.208;8.904;2022-08-21T11:29:50;26.20;76.60
8715;DHT22;4394;51.208;8.904;2022-08-21T11:32:57;26.10;74.60
8715;DHT22;4394;51.208;8.904;2022-08-21T11:35:56;26.00;75.70
8715;DHT22;4394;51.208;8.904;2022-08-21T11:38:56;25.80;75.90
8715;DHT22;4394;51.208;8.904;2022-08-21T11:41:52;25.50;73.20
8715;DHT22;4394;51.208;8.904;2022-08-21T11:44:48;25.40;75.10
8715;DHT22;4394;51.208;8.904;2022-08-21T11:47:48;25.50;76.40
8715;DHT22;4394;51.208;8.904;2022-08-21T11:50:43;25.40;74.40
8715;DHT22;4394;51.208;8.904;2022-08-21T11:53:37;25.60;77.50
8715;DHT22;4394;51.208;8.904;2022-08-21T11:56:30;26.00;77.80
8715;DHT22;4394;51.208;8.904;2022-08-21T11:59:25;26.20;73.80
8715;DHT22;4394;51.208;8.904;2022-08-21T12:02:21;26.40;76.80
8715;DHT22;4394;51.208;8.904;2022-08-21T12:05:23;26.60;73.90
8715;DHT22;4394;51.208;8.904;2022-08-21T12:08:26;26.90;71.20
8715;DHT22;4394;51.208;8.904;2022-08-21T12:11:24;27.10;72.60
8715;DHT22;4394;51.208;8.904;2022-08-21T12:14:18;27.20;72.90
8715;DHT22;4394;51.208;8.904;2022-08-21T12:17:16;27.30;71.90
8715;DHT22;4394;51.208;8.904;2022-08-21T12:20:17;27.20;67.40
8715;DHT22;4394;51.208;8.904;2022-08-21T12:23:19;27.40;70.00
8715;DHT22;4394;51.208;8.904;2022-08-21T12:26:27;27.70;68.20
8715;DHT22;4394;51.208;8.904;2022-08-21T12:29:22;27.60;62.90
8715;DHT22;4394;51.208;8.904;2022-08-21T12:32:24;27.60;64.40
8715;DHT22;4394;51.208;8.904;2022-08-21T12:35:15;27.60;64.70
8715;DHT22;4394;51.208;8.904;2022-08-21T12:38:15;27.80;66.40
8715;DHT22;4394;51.208;8.904;2022-08-21T12:41:10;28.00;67.20
8715;DHT22;4394;51.208;8.904;2022-08-21T12:44:07;28.30;65.50
8715;DHT22;4394;51.208;8.904;2022-08-21T12:47:01;28.20;60.40
8715;DHT22;4394;51.208;8.904;2022-08-21T12:49:54;28.30;62.00
8715;DHT22;4394;51.208;8.904;2022-08-21T12:52:51;28.40;62.40
8715;DHT22;4394;51.208;8.904;2022-08-21T12:55:42;28.50;61.10
8715;DHT22;4394;51.208;8.904;2022-08-21T12:58:32;28.70;60.60
8715;DHT22;4394;51.208;8.904;2022-08-21T13:01:23;28.80;59.50
8715;DHT22;4394;51.208;8.904;2022-08-21T13:04:17;29.00;56.20
8715;DHT22;4394;51.208;8.904;2022-08-21T13:07:10;28.90;56.70
8715;DHT22;4394;51.208;8.904;2022-08-21T13:10:03;29.00;57.10
8715;DHT22;4394;51.208;8.904;2022-08-21T13:12:54;29.20;57.80
8715;DHT22;4394;51.208;8.904;2022-08-21T13:15:45;29.50;56.50
8715;DHT22;4394;51.208;8.904;2022-08-21T15:30:59;31.30;51.00
8715;DHT22;4394;51.208;8.904;2022-08-21T15:33:48;29.40;52.80
8715;DHT22;4394;51.208;8.904;2022-08-21T15:37:13;29.00;54.80
8715;DHT22;4394;51.208;8.904;2022-08-21T15:53:03;28.40;57.30
8715;DHT22;4394;51.208;8.904;2022-08-21T15:55:53;28.40;58.60
8715;DHT22;4394;51.208;8.904;2022-08-21T15:58:41;28.30;58.30
8715;DHT22;4394;51.208;8.904;2022-08-21T16:01:30;28.30;58.00
8715;DHT22;4394;51.208;8.904;2022-08-21T16:04:31;28.20;58.20
8715;DHT22;4394;51.208;8.904;2022-08-21T16:07:19;27.80;58.80
8715;DHT22;4394;51.208;8.904;2022-08-21T16:10:09;28.00;58.80
8715;DHT22;4394;51.208;8.904;2022-08-21T16:13:02;28.00;58.20
8715;DHT22;4394;51.208;8.904;2022-08-21T16:15:51;27.90;59.00
8715;DHT22;4394;51.208;8.904;2022-08-21T16:18:39;27.90;59.70
8715;DHT22;4394;51.208;8.904;2022-08-21T16:21:28;27.80;59.40
8715;DHT22;4394;51.208;8.904;2022-08-21T16:24:16;27.90;58.40
8715;DHT22;4394;51.208;8.904;2022-08-21T16:27:06;27.80;59.10
8715;DHT22;4394;51.208;8.904;2022-08-21T16:29:54;27.70;59.40
8715;DHT22;4394;51.208;8.904;2022-08-21T16:32:43;27.60;60.20
8715;DHT22;4394;51.208;8.904;2022-08-21T16:35:32;27.50;59.60
8715;DHT22;4394;51.208;8.904;2022-08-21T16:38:23;27.40;60.00
8715;DHT22;4394;51.208;8.904;2022-08-21T16:41:13;27.30;60.40
8715;DHT22;4394;51.208;8.904;2022-08-21T16:44:05;27.20;59.60
8715;DHT22;4394;51.208;8.904;2022-08-21T16:46:57;27.10;60.10
8715;DHT22;4394;51.208;8.904;2022-08-21T16:49:45;27.00;59.60
8715;DHT22;4394;51.208;8.904;2022-08-21T16:52:36;26.90;60.20
8715;DHT22;4394;51.208;8.904;2022-08-21T16:55:24;26.90;61.10
8715;DHT22;4394;51.208;8.904;2022-08-21T16:58:16;26.80;60.00
8715;DHT22;4394;51.208;8.904;2022-08-21T17:01:10;26.70;60.50
8715;DHT22;4394;51.208;8.904;2022-08-21T17:03:59;26.90;59.40
8715;DHT22;4394;51.208;8.904;2022-08-21T17:06:47;26.70;60.10
8715;DHT22;4394;51.208;8.904;2022-08-21T17:09:36;26.60;60.80
8715;DHT22;4394;51.208;8.904;2022-08-21T17:12:24;26.50;61.50
8715;DHT22;4394;51.208;8.904;2022-08-21T17:15:17;26.40;61.80
8715;DHT22;4394;51.208;8.904;2022-08-21T17:18:13;26.30;61.90
8715;DHT22;4394;51.208;8.904;2022-08-21T17:21:06;26.20;62.90
8715;DHT22;4394;51.208;8.904;2022-08-21T17:23:58;26.20;64.00
8715;DHT22;4394;51.208;8.904;2022-08-21T17:26:52;26.10;64.20
8715;DHT22;4394;51.208;8.904;2022-08-21T17:29:44;26.10;63.90
8715;DHT22;4394;51.208;8.904;2022-08-21T17:32:42;26.30;62.80
8715;DHT22;4394;51.208;8.904;2022-08-21T17:35:36;26.20;63.80
8715;DHT22;4394;51.208;8.904;2022-08-21T17:38:27;26.20;63.50
8715;DHT22;4394;51.208;8.904;2022-08-21T17:41:34;26.20;63.80
8715;DHT22;4394;51.208;8.904;2022-08-21T17:44:36;26.50;61.30
8715;DHT22;4394;51.208;8.904;2022-08-21T17:47:38;26.40;62.20
8715;DHT22;4394;51.208;8.904;2022-08-21T17:50:38;26.20;62.10
8715;DHT22;4394;51.208;8.904;2022-08-21T17:53:52;26.10;62.40
8715;DHT22;4394;51.208;8.904;2022-08-21T17:57:15;26.00;62.90
8715;DHT22;4394;51.208;8.904;2022-08-21T18:00:22;25.90;61.90
8715;DHT22;4394;51.208;8.904;2022-08-21T18:03:15;25.70;64.20
8715;DHT22;4394;51.208;8.904;2022-08-21T18:06:07;25.60;65.30
8715;DHT22;4394;51.208;8.904;2022-08-21T18:09:11;25.50;63.90
8715;DHT22;4394;51.208;8.904;2022-08-21T18:12:20;25.60;63.70
8715;DHT22;4394;51.208;8.904;2022-08-21T18:15:33;25.40;63.50
8715;DHT22;4394;51.208;8.904;2022-08-21T18:18:44;25.30;64.60
8715;DHT22;4394;51.208;8.904;2022-08-21T18:21:55;25.20;65.10
8715;DHT22;4394;51.208;8.904;2022-08-21T18:24:49;25.10;65.20
8715;DHT22;4394;51.208;8.904;2022-08-21T18:27:42;25.00;65.50
8715;DHT22;4394;51.208;8.904;2022-08-21T18:30:37;25.00;65.50
8715;DHT22;4394;51.208;8.904;2022-08-21T18:33:35;24.80;65.70
8715;DHT22;4394;51.208;8.904;2022-08-21T18:36:24;24.70;66.10
8715;DHT22;4394;51.208;8.904;2022-08-21T18:39:14;24.60;66.20
8715;DHT22;4394;51.208;8.904;2022-08-21T18:42:23;24.50;67.30
8715;DHT22;4394;51.208;8.904;2022-08-21T18:45:17;24.40;67.00
8715;DHT22;4394;51.208;8.904;2022-08-21T18:48:10;24.30;68.40
8715;DHT22;4394;51.208;8.904;2022-08-21T18:51:00;24.20;67.20
8715;DHT22;4394;51.208;8.904;2022-08-21T18:53:52;24.30;66.80
8715;DHT22;4394;51.208;8.904;2022-08-21T18:56:46;24.20;67.90
8715;DHT22;4394;51.208;8.904;2022-08-21T18:59:49;24.00;67.60
8715;DHT22;4394;51.208;8.904;2022-08-21T19:02:42;23.90;68.10
8715;DHT22;4394;51.208;8.904;2022-08-21T19:05:31;23.80;68.00
8715;DHT22;4394;51.208;8.904;2022-08-21T19:08:22;23.70;67.50
8715;DHT22;4394;51.208;8.904;2022-08-21T19:11:13;23.50;67.80
8715;DHT22;4394;51.208;8.904;2022-08-21T19:14:13;23.40;67.70
8715;DHT22;4394;51.208;8.904;2022-08-21T19:17:03;23.30;68.20
8715;DHT22;4394;51.208;8.904;2022-08-21T19:19:51;23.20;68.70
8715;DHT22;4394;51.208;8.904;2022-08-21T19:22:40;23.10;68.80
8715;DHT22;4394;51.208;8.904;2022-08-21T19:25:40;23.10;69.40
8715;DHT22;4394;51.208;8.904;2022-08-21T19:28:32;23.00;70.10
8715;DHT22;4394;51.208;8.904;2022-08-21T19:31:26;22.90;70.30
8715;DHT22;4394;51.208;8.904;2022-08-21T19:34:17;23.00;70.10
8715;DHT22;4394;51.208;8.904;2022-08-21T19:37:07;22.90;70.10
8715;DHT22;4394;51.208;8.904;2022-08-21T19:39:57;22.80;71.00
8715;DHT22;4394;51.208;8.904;2022-08-21T19:42:46;22.70;70.90
8715;DHT22;4394;51.208;8.904;2022-08-21T19:45:36;22.60;71.10
8715;DHT22;4394;51.208;8.904;2022-08-21T19:48:26;22.60;71.70
8715;DHT22;4394;51.208;8.904;2022-08-21T19:51:15;22.50;72.20
8715;DHT22;4394;51.208;8.904;2022-08-21T19:54:03;22.50;72.80
8715;DHT22;4394;51.208;8.904;2022-08-21T19:57:00;22.50;73.60
8715;DHT22;4394;51.208;8.904;2022-08-21T20:00:13;22.40;73.50
8715;DHT22;4394;51.208;8.904;2022-08-21T20:03:05;22.30;74.20
8715;DHT22;4394;51.208;8.904;2022-08-21T20:05:55;22.30;74.60
8715;DHT22;4394;51.208;8.904;2022-08-21T20:08:45;22.20;74.90
8715;DHT22;4394;51.208;8.904;2022-08-21T20:11:37;22.20;75.70
8715;DHT22;4394;51.208;8.904;2022-08-21T20:14:28;22.10;75.90
8715;DHT22;4394;51.208;8.904;2022-08-21T20:17:18;22.20;76.20
8715;DHT22;4394;51.208;8.904;2022-08-21T20:20:07;22.20;76.90
8715;DHT22;4394;51.208;8.904;2022-08-21T20:22:59;22.10;77.00
8715;DHT22;4394;51.208;8.904;2022-08-21T20:25:57;22.00;77.10
8715;DHT22;4394;51.208;8.904;2022-08-21T20:28:48;22.20;77.90
8715;DHT22;4394;51.208;8.904;2022-08-21T20:31:37;22.10;78.20
8715;DHT22;4394;51.208;8.904;2022-08-21T20:34:26;22.00;79.10
8715;DHT22;4394;51.208;8.904;2022-08-21T20:37:14;21.90;79.60
8715;DHT22;4394;51.208;8.904;2022-08-21T20:40:24;21.80;80.20
8715;DHT22;4394;51.208;8.904;2022-08-21T20:43:33;21.80;81.30
8715;DHT22;4394;51.208;8.904;2022-08-21T20:46:30;21.70;81.80
8715;DHT22;4394;51.208;8.904;2022-08-21T20:49:20;21.70;82.70
8715;DHT22;4394;51.208;8.904;2022-08-21T20:52:15;21.60;83.00
8715;DHT22;4394;51.208;8.904;2022-08-21T20:55:09;21.60;83.90
8715;DHT22;4394;51.208;8.904;2022-08-21T20:58:04;21.60;84.60
8715;DHT22;4394;51.208;8.904;2022-08-21T21:00:54;21.50;84.50
8715;DHT22;4394;51.208;8.904;2022-08-21T21:03:47;21.40;84.90
8715;DHT22;4394;51.208;8.904;2022-08-21T21:06:40;21.40;85.40
8715;DHT22;4394;51.208;8.904;2022-08-21T21:09:39;21.30;85.00
8715;DHT22;4394;51.208;8.904;2022-08-21T21:12:33;21.50;85.70
8715;DHT22;4394;51.208;8.904;2022-08-21T21:15:29;21.40;85.60